createdAt,value
2022-12-31T00:02:21.320Z,7.93
2022-12-31T00:04:49.321Z,7.95
2022-12-31T00:07:17.205Z,7.96
2022-12-31T00:09:46.537Z,7.95
2022-12-31T00:12:14.598Z,7.93
2022-12-31T00:14:42.482Z,7.91
2022-12-31T00:17:10.469Z,7.93
2022-12-31T00:19:38.553Z,7.95
2022-12-31T00:22:06.497Z,7.96
2022-12-31T00:24:35.964Z,7.96
2022-12-31T00:27:05.308Z,7.98
2022-12-31T00:29:33.291Z,7.99
2022-12-31T00:32:01.313Z,8.02
2022-12-31T00:34:29.219Z,8.07
2022-12-31T00:36:57.091Z,8.07
2022-12-31T00:39:25.036Z,8.07
2022-12-31T00:41:52.966Z,8.06
2022-12-31T00:44:22.279Z,8.05
2022-12-31T00:46:50.187Z,8.04
2022-12-31T00:49:18.352Z,8.01
2022-12-31T00:51:46.761Z,7.96
2022-12-31T00:54:15.866Z,7.85
2022-12-31T00:56:43.772Z,7.68
2022-12-31T00:59:11.779Z,7.49
2022-12-31T01:01:41.893Z,7.33
2022-12-31T01:04:12.384Z,7.15
2022-12-31T01:06:40.935Z,6.99
2022-12-31T01:09:09.432Z,6.84
2022-12-31T01:11:37.782Z,6.73
2022-12-31T01:14:07.943Z,6.65
2022-12-31T01:16:41.279Z,6.60
2022-12-31T01:19:11.229Z,6.57
2022-12-31T01:21:40.280Z,6.54
2022-12-31T01:24:09.041Z,6.38
2022-12-31T01:26:37.763Z,6.20
2022-12-31T01:29:06.292Z,6.06
2022-12-31T01:31:35.264Z,5.90
2022-12-31T01:34:05.262Z,5.82
2022-12-31T01:36:35.106Z,5.80
2022-12-31T01:39:05.464Z,5.80
2022-12-31T01:41:36.264Z,5.83
2022-12-31T01:44:24.895Z,5.89
2022-12-31T01:46:56.035Z,5.93
2022-12-31T01:49:30.830Z,5.96
2022-12-31T01:52:03.852Z,6.01
2022-12-31T01:54:36.545Z,6.05
2022-12-31T01:57:05.394Z,6.12
2022-12-31T01:59:34.846Z,6.14
2022-12-31T02:02:03.381Z,6.04
2022-12-31T02:04:32.948Z,5.93
2022-12-31T02:07:03.030Z,5.88
2022-12-31T02:09:32.455Z,5.86
2022-12-31T02:12:00.586Z,5.89
2022-12-31T02:14:31.746Z,5.92
2022-12-31T02:17:08.461Z,5.96
2022-12-31T02:20:12.239Z,5.91
2022-12-31T02:23:10.347Z,5.90
2022-12-31T02:26:02.035Z,5.94
2022-12-31T02:29:06.679Z,5.99
2022-12-31T02:31:40.661Z,6.02
2022-12-31T02:34:15.212Z,6.04
2022-12-31T02:36:48.112Z,6.04
2022-12-31T02:39:16.826Z,6.01
2022-12-31T02:41:51.185Z,6.04
2022-12-31T02:44:26.750Z,6.06
2022-12-31T02:47:08.131Z,6.09
2022-12-31T02:49:44.065Z,6.16
2022-12-31T02:52:18.612Z,6.20
2022-12-31T02:54:54.549Z,6.24
2022-12-31T02:57:31.881Z,6.23
2022-12-31T03:00:21.815Z,6.23
2022-12-31T03:02:53.318Z,6.19
2022-12-31T03:05:25.069Z,6.10
2022-12-31T03:07:53.326Z,5.99
2022-12-31T03:10:21.886Z,5.91
2022-12-31T03:12:49.346Z,5.90
2022-12-31T03:15:22.834Z,5.89
2022-12-31T03:17:55.203Z,5.85
2022-12-31T03:20:43.522Z,5.87
2022-12-31T03:23:14.845Z,5.75
2022-12-31T03:25:42.964Z,5.49
2022-12-31T03:28:13.644Z,5.32
2022-12-31T03:30:45.041Z,5.18
2022-12-31T03:33:15.364Z,5.15
2022-12-31T03:35:45.648Z,5.17
2022-12-31T03:38:13.682Z,5.27
2022-12-31T03:40:44.179Z,5.37
2022-12-31T03:43:12.551Z,5.47
2022-12-31T03:45:40.984Z,5.52
2022-12-31T03:48:10.564Z,5.59
2022-12-31T03:50:40.026Z,5.60
2022-12-31T03:53:08.131Z,5.58
2022-12-31T03:55:36.101Z,5.50
2022-12-31T03:58:04.146Z,5.38
2022-12-31T04:00:32.248Z,5.25
2022-12-31T04:03:00.213Z,5.18
2022-12-31T04:05:28.164Z,5.08
2022-12-31T04:07:57.624Z,4.92
2022-12-31T04:10:25.565Z,4.83
2022-12-31T04:12:53.538Z,4.84
2022-12-31T04:15:22.525Z,4.89
2022-12-31T04:17:50.550Z,4.99
2022-12-31T04:20:18.776Z,5.08
2022-12-31T04:22:46.713Z,5.20
2022-12-31T04:25:16.237Z,5.29
2022-12-31T04:27:44.747Z,5.36
2022-12-31T04:30:14.229Z,5.40
2022-12-31T04:32:42.416Z,5.47
2022-12-31T04:35:11.757Z,5.53
2022-12-31T04:37:39.749Z,5.62
2022-12-31T04:40:09.542Z,5.68
2022-12-31T04:42:39.114Z,5.76
2022-12-31T04:45:08.263Z,5.84
2022-12-31T04:47:36.198Z,5.93
2022-12-31T04:50:04.315Z,6.00
2022-12-31T04:52:35.780Z,6.03
2022-12-31T04:55:07.365Z,6.04
2022-12-31T04:57:35.362Z,6.02
2022-12-31T05:00:05.108Z,6.01
2022-12-31T05:02:33.305Z,6.06
2022-12-31T05:05:01.344Z,6.10
2022-12-31T05:07:29.309Z,6.13
2022-12-31T05:09:57.299Z,6.19
2022-12-31T05:12:25.253Z,6.22
2022-12-31T05:14:53.130Z,6.29
2022-12-31T05:17:22.492Z,6.31
2022-12-31T05:19:50.446Z,6.37
2022-12-31T05:22:30.361Z,6.37
2022-12-31T05:24:59.452Z,6.32
2022-12-31T05:27:27.791Z,6.28
2022-12-31T05:29:56.001Z,6.28
2022-12-31T05:32:25.457Z,6.27
2022-12-31T05:34:54.218Z,6.24
2022-12-31T05:37:22.154Z,6.26
2022-12-31T05:39:50.194Z,6.27
2022-12-31T05:42:18.092Z,6.30
2022-12-31T05:44:46.254Z,6.37
2022-12-31T05:47:14.514Z,6.38
2022-12-31T05:49:44.051Z,6.40
2022-12-31T05:52:12.171Z,6.42
2022-12-31T05:54:40.205Z,6.46
2022-12-31T05:57:08.428Z,6.47
2022-12-31T05:59:36.609Z,6.45
2022-12-31T06:02:04.739Z,6.41
2022-12-31T06:04:33.190Z,6.37
2022-12-31T06:07:02.474Z,6.32
2022-12-31T06:09:30.407Z,6.28
2022-12-31T06:11:58.490Z,6.23
2022-12-31T06:14:26.404Z,6.22
2022-12-31T06:16:54.281Z,6.22
2022-12-31T06:19:22.322Z,6.22
2022-12-31T06:21:50.284Z,6.21
2022-12-31T06:24:19.911Z,6.20
2022-12-31T06:26:47.914Z,6.21
2022-12-31T06:29:15.983Z,6.27
2022-12-31T06:31:43.959Z,6.33
2022-12-31T06:34:12.533Z,6.39
2022-12-31T06:36:40.518Z,6.48
2022-12-31T06:39:08.499Z,6.52
2022-12-31T06:41:37.971Z,6.57
2022-12-31T06:44:06.390Z,6.62
2022-12-31T06:46:34.450Z,6.70
2022-12-31T06:49:02.614Z,6.78
2022-12-31T06:51:30.560Z,6.84
2022-12-31T06:53:58.512Z,6.88
2022-12-31T06:56:34.050Z,6.89
2022-12-31T06:59:05.686Z,6.92
2022-12-31T07:01:52.340Z,6.90
2022-12-31T07:04:59.157Z,6.92
2022-12-31T07:07:34.083Z,6.94
2022-12-31T07:10:12.177Z,6.95
2022-12-31T07:12:55.270Z,6.90
2022-12-31T07:15:38.070Z,6.86
2022-12-31T07:18:16.175Z,6.75
2022-12-31T07:20:44.713Z,6.63
2022-12-31T07:23:13.206Z,6.53
2022-12-31T07:25:45.348Z,6.45
2022-12-31T07:28:25.123Z,6.36
2022-12-31T07:31:05.270Z,6.35
2022-12-31T07:33:44.769Z,6.35
2022-12-31T07:36:23.861Z,6.37
2022-12-31T07:38:56.893Z,6.49
2022-12-31T07:41:42.138Z,6.62
2022-12-31T07:44:25.836Z,6.81
2022-12-31T07:46:57.712Z,7.06
2022-12-31T07:49:27.216Z,7.30
2022-12-31T07:51:56.236Z,7.52
2022-12-31T07:54:24.445Z,7.68
2022-12-31T07:56:52.959Z,7.84
2022-12-31T07:59:38.464Z,7.95
2022-12-31T08:02:18.369Z,8.02
2022-12-31T08:04:54.868Z,8.12
2022-12-31T08:07:32.028Z,8.16
2022-12-31T08:10:10.163Z,8.24
2022-12-31T08:12:42.655Z,8.37
2022-12-31T08:15:14.925Z,8.52
2022-12-31T08:17:45.039Z,8.72
2022-12-31T08:20:15.824Z,8.94
2022-12-31T08:23:10.226Z,9.10
2022-12-31T08:25:49.727Z,9.21
2022-12-31T08:28:30.922Z,9.28
2022-12-31T08:31:03.176Z,9.34
2022-12-31T08:33:40.204Z,9.37
2022-12-31T08:36:18.562Z,9.44
2022-12-31T08:38:54.443Z,9.48
2022-12-31T08:41:29.285Z,9.53
2022-12-31T08:44:09.580Z,9.58
2022-12-31T08:46:46.079Z,9.63
2022-12-31T08:49:16.145Z,9.64
2022-12-31T08:51:44.416Z,9.70
2022-12-31T08:54:13.414Z,9.74
2022-12-31T08:56:50.507Z,9.83
2022-12-31T08:59:33.570Z,9.91
2022-12-31T09:02:21.403Z,9.98
2022-12-31T09:05:01.973Z,10.06
2022-12-31T09:07:37.157Z,10.15
2022-12-31T09:10:17.133Z,10.28
2022-12-31T09:12:53.112Z,10.44
2022-12-31T09:15:27.760Z,10.57
2022-12-31T09:17:56.283Z,10.73
2022-12-31T09:20:41.860Z,10.87
2022-12-31T09:23:11.223Z,11.04
2022-12-31T09:25:44.269Z,11.18
2022-12-31T09:28:19.737Z,11.32
2022-12-31T09:30:55.919Z,11.40
2022-12-31T09:33:37.531Z,11.48
2022-12-31T09:36:09.010Z,11.60
2022-12-31T09:38:45.281Z,11.68
2022-12-31T09:41:15.660Z,11.79
2022-12-31T09:44:26.390Z,11.85
2022-12-31T09:47:39.145Z,11.96
2022-12-31T09:50:29.938Z,12.05
2022-12-31T09:53:27.802Z,12.11
2022-12-31T09:56:04.070Z,12.22
2022-12-31T09:58:45.353Z,12.32
2022-12-31T10:01:29.049Z,12.46
2022-12-31T10:04:23.513Z,12.59
2022-12-31T10:07:03.325Z,12.75
2022-12-31T10:09:56.747Z,12.83
2022-12-31T10:13:03.206Z,12.86
2022-12-31T10:16:05.077Z,12.91
2022-12-31T10:18:52.818Z,13.08
2022-12-31T10:21:33.994Z,13.14
2022-12-31T10:24:21.234Z,13.12
2022-12-31T10:27:05.847Z,13.14
2022-12-31T10:29:43.781Z,13.18
2022-12-31T10:32:24.946Z,13.24
2022-12-31T10:35:01.468Z,13.25
2022-12-31T10:37:35.607Z,13.27
2022-12-31T10:40:16.426Z,13.31
2022-12-31T10:43:22.904Z,13.25
2022-12-31T10:46:23.050Z,13.29
2022-12-31T10:49:26.335Z,13.30
2022-12-31T10:52:39.772Z,13.15
2022-12-31T10:55:50.570Z,13.06
2022-12-31T10:58:51.989Z,13.17
2022-12-31T11:01:33.831Z,13.14
2022-12-31T11:04:46.382Z,13.16
2022-12-31T11:07:54.683Z,13.12
2022-12-31T11:11:06.038Z,13.10
2022-12-31T11:14:05.188Z,13.01
2022-12-31T11:16:44.295Z,12.96
2022-12-31T11:19:21.754Z,12.94
2022-12-31T11:22:08.384Z,12.99
2022-12-31T11:24:55.760Z,13.06
2022-12-31T11:27:48.967Z,13.06
2022-12-31T11:30:23.248Z,13.08
2022-12-31T11:33:12.337Z,13.04
2022-12-31T11:35:57.752Z,13.07
2022-12-31T11:38:29.943Z,13.12
2022-12-31T11:41:03.755Z,13.13
2022-12-31T11:43:40.859Z,13.09
2022-12-31T11:46:27.430Z,13.14
2022-12-31T11:49:06.316Z,13.22
2022-12-31T11:51:52.633Z,13.23
2022-12-31T11:54:59.386Z,13.28
2022-12-31T11:57:33.807Z,13.39
2022-12-31T12:00:08.683Z,13.56
2022-12-31T12:02:40.070Z,13.65
2022-12-31T12:05:11.264Z,13.67
2022-12-31T12:07:39.868Z,13.64
2022-12-31T12:10:33.520Z,13.64
2022-12-31T12:13:12.609Z,13.67
2022-12-31T12:15:43.455Z,13.63
2022-12-31T12:18:29.351Z,13.54
2022-12-31T12:21:10.454Z,13.47
2022-12-31T12:23:39.140Z,13.46
2022-12-31T12:26:07.591Z,13.48
2022-12-31T12:28:44.696Z,13.56
2022-12-31T12:31:21.992Z,13.77
2022-12-31T12:33:51.885Z,13.95
2022-12-31T12:36:22.402Z,14.20
2022-12-31T12:38:50.403Z,14.42
2022-12-31T12:41:26.487Z,14.61
2022-12-31T12:44:03.919Z,14.84
2022-12-31T12:46:36.519Z,14.96
2022-12-31T12:49:05.229Z,14.98
2022-12-31T12:51:49.272Z,14.98
2022-12-31T12:54:29.384Z,14.92
2022-12-31T12:57:05.514Z,15.33
2022-12-31T13:00:00.860Z,16.49
2022-12-31T13:02:57.273Z,17.19
2022-12-31T13:05:39.018Z,17.70
2022-12-31T13:08:23.379Z,17.76
2022-12-31T13:11:07.524Z,18.40
2022-12-31T13:13:48.482Z,18.97
2022-12-31T13:16:24.202Z,19.21
2022-12-31T13:19:06.941Z,19.48
2022-12-31T13:21:46.873Z,19.76
2022-12-31T13:24:36.653Z,19.99
2022-12-31T13:27:13.734Z,20.38
2022-12-31T13:29:45.191Z,20.54
2022-12-31T13:32:19.052Z,20.24
2022-12-31T13:34:51.579Z,19.64
2022-12-31T13:37:27.991Z,18.99
2022-12-31T13:40:02.873Z,18.55
2022-12-31T13:42:36.275Z,18.23
2022-12-31T13:45:11.390Z,17.94
2022-12-31T13:47:45.433Z,18.02
2022-12-31T13:50:20.790Z,18.18
2022-12-31T13:52:55.459Z,18.10
2022-12-31T13:55:31.269Z,17.84
2022-12-31T13:58:06.878Z,17.45
2022-12-31T14:00:41.247Z,16.96
2022-12-31T14:03:16.277Z,16.43
2022-12-31T14:05:49.992Z,15.95
2022-12-31T14:08:17.930Z,15.45
2022-12-31T14:11:00.170Z,15.04
2022-12-31T14:13:43.259Z,14.74
2022-12-31T14:16:24.064Z,14.48
2022-12-31T14:19:01.781Z,14.30
2022-12-31T14:21:38.357Z,14.07
2022-12-31T14:24:14.233Z,13.92
2022-12-31T14:26:47.305Z,13.78
2022-12-31T14:29:30.537Z,13.64
2022-12-31T14:32:24.345Z,13.48
2022-12-31T14:35:03.012Z,13.35
2022-12-31T14:37:40.957Z,13.21
2022-12-31T14:40:20.470Z,13.10
2022-12-31T14:43:02.822Z,13.00
2022-12-31T14:45:43.442Z,12.92
2022-12-31T14:48:24.680Z,12.84
2022-12-31T14:50:52.881Z,12.78
2022-12-31T14:53:24.636Z,12.72
2022-12-31T14:56:01.718Z,12.68
2022-12-31T14:58:36.613Z,12.63
2022-12-31T15:01:08.845Z,12.59
2022-12-31T15:03:45.553Z,12.56
2022-12-31T15:06:35.368Z,12.49
2022-12-31T15:09:19.785Z,12.43
2022-12-31T15:12:12.027Z,12.33
2022-12-31T15:14:53.772Z,12.24
2022-12-31T15:17:33.239Z,12.13
2022-12-31T15:20:23.197Z,12.04
2022-12-31T15:22:52.225Z,11.93
2022-12-31T15:25:28.731Z,11.84
2022-12-31T15:27:58.988Z,11.78
2022-12-31T15:30:39.683Z,11.71
2022-12-31T15:33:11.052Z,11.65
2022-12-31T15:35:51.807Z,11.60
2022-12-31T15:38:36.589Z,11.53
2022-12-31T15:41:16.359Z,11.50
2022-12-31T15:43:49.666Z,11.47
2022-12-31T15:46:22.643Z,11.39
2022-12-31T15:49:01.924Z,11.35
2022-12-31T15:51:37.471Z,11.29
2022-12-31T15:54:06.646Z,11.24
2022-12-31T15:56:40.026Z,11.19
2022-12-31T15:59:14.029Z,11.14
2022-12-31T16:01:44.708Z,11.11
2022-12-31T16:04:18.644Z,11.07
2022-12-31T16:06:50.658Z,11.04
2022-12-31T16:09:23.414Z,10.97
2022-12-31T16:11:53.143Z,10.98
2022-12-31T16:14:24.849Z,10.97
2022-12-31T16:16:56.712Z,10.96
2022-12-31T16:19:34.121Z,10.91
2022-12-31T16:22:08.299Z,10.88
2022-12-31T16:24:48.913Z,10.84
2022-12-31T16:27:26.783Z,10.79
2022-12-31T16:30:00.607Z,10.76
2022-12-31T16:32:36.245Z,10.74
2022-12-31T16:35:12.036Z,10.74
2022-12-31T16:37:45.542Z,10.72
2022-12-31T16:40:22.683Z,10.69
2022-12-31T16:42:51.578Z,10.67
2022-12-31T16:45:30.530Z,10.64
2022-12-31T16:48:02.446Z,10.61
2022-12-31T16:50:30.632Z,10.61
2022-12-31T16:53:04.373Z,10.57
2022-12-31T16:55:34.423Z,10.54
2022-12-31T16:58:08.958Z,10.54
2022-12-31T17:00:38.135Z,10.55
2022-12-31T17:03:15.579Z,10.57
2022-12-31T17:05:58.967Z,10.63
2022-12-31T17:08:29.301Z,10.71
2022-12-31T17:10:57.718Z,10.77
2022-12-31T17:13:30.575Z,10.83
2022-12-31T17:15:59.728Z,10.90
2022-12-31T17:18:38.205Z,10.99
2022-12-31T17:21:10.082Z,11.11
2022-12-31T17:23:40.663Z,11.19
2022-12-31T17:26:12.724Z,11.26
2022-12-31T17:28:45.279Z,11.34
2022-12-31T17:31:34.416Z,11.36
2022-12-31T17:34:21.314Z,11.40
2022-12-31T17:37:00.213Z,11.44
2022-12-31T17:39:40.026Z,11.50
2022-12-31T17:42:11.261Z,11.50
2022-12-31T17:44:42.138Z,11.53
2022-12-31T17:47:14.169Z,11.53
2022-12-31T17:49:46.577Z,11.54
2022-12-31T17:52:16.642Z,11.56
2022-12-31T17:54:44.736Z,11.59
2022-12-31T17:57:26.066Z,11.61
2022-12-31T17:59:54.319Z,11.64
2022-12-31T18:02:22.465Z,11.65
2022-12-31T18:04:53.119Z,11.63
2022-12-31T18:07:21.245Z,11.66
2022-12-31T18:09:49.158Z,11.68
2022-12-31T18:12:19.209Z,11.71
2022-12-31T18:14:47.432Z,11.74
2022-12-31T18:17:17.508Z,11.74
2022-12-31T18:20:04.703Z,11.74
2022-12-31T18:22:35.935Z,11.71
2022-12-31T18:25:04.828Z,11.71
2022-12-31T18:27:34.337Z,11.70
2022-12-31T18:30:06.068Z,11.65
2022-12-31T18:32:39.502Z,11.56
2022-12-31T18:35:33.377Z,11.55
2022-12-31T18:38:04.885Z,11.53
2022-12-31T18:40:34.077Z,11.52
2022-12-31T18:43:05.068Z,11.51
2022-12-31T18:45:33.427Z,11.51
2022-12-31T18:48:02.952Z,11.51
2022-12-31T18:50:31.519Z,11.53
2022-12-31T18:53:00.154Z,11.53
2022-12-31T18:55:37.936Z,11.51
2022-12-31T18:58:06.569Z,11.51
2022-12-31T19:00:35.786Z,11.51
2022-12-31T19:03:05.557Z,11.53
2022-12-31T19:05:35.693Z,11.57
2022-12-31T19:08:04.895Z,11.61
2022-12-31T19:10:35.230Z,11.62
2022-12-31T19:13:04.421Z,11.64
2022-12-31T19:15:35.077Z,11.66
2022-12-31T19:18:07.406Z,11.64
2022-12-31T19:20:35.735Z,11.64
2022-12-31T19:23:04.072Z,11.67
2022-12-31T19:25:35.950Z,11.68
2022-12-31T19:28:04.999Z,11.62
2022-12-31T19:30:35.274Z,11.66
2022-12-31T19:33:03.251Z,11.67
2022-12-31T19:35:31.236Z,11.67
2022-12-31T19:37:59.918Z,11.68
2022-12-31T19:40:30.407Z,11.69
2022-12-31T19:42:59.873Z,11.69
2022-12-31T19:45:30.063Z,11.73
2022-12-31T19:47:58.221Z,11.82
2022-12-31T19:50:28.917Z,11.93
2022-12-31T19:52:59.207Z,11.96
2022-12-31T19:55:27.958Z,11.99
2022-12-31T19:57:55.868Z,12.00
2022-12-31T20:00:25.256Z,12.02
2022-12-31T20:02:53.446Z,12.04
2022-12-31T20:05:24.500Z,12.00
2022-12-31T20:07:52.481Z,11.97
2022-12-31T20:10:20.678Z,11.91
2022-12-31T20:12:48.658Z,11.81
2022-12-31T20:15:16.795Z,11.74
2022-12-31T20:17:46.163Z,11.64
2022-12-31T20:20:14.306Z,11.62
2022-12-31T20:22:42.328Z,11.60
2022-12-31T20:25:10.719Z,11.56
2022-12-31T20:27:38.605Z,11.56
2022-12-31T20:30:09.714Z,11.57
2022-12-31T20:32:37.876Z,11.56
2022-12-31T20:35:08.285Z,11.54
2022-12-31T20:37:36.302Z,11.56
2022-12-31T20:40:04.572Z,11.58
2022-12-31T20:42:32.560Z,11.59
2022-12-31T20:45:00.519Z,11.63
2022-12-31T20:47:28.721Z,11.65
2022-12-31T20:50:12.639Z,11.65
2022-12-31T20:52:43.257Z,11.67
2022-12-31T20:55:13.754Z,11.72
2022-12-31T20:57:41.755Z,11.78
2022-12-31T21:00:12.005Z,11.85
2022-12-31T21:02:42.602Z,11.93
2022-12-31T21:05:11.993Z,11.98
2022-12-31T21:07:41.437Z,11.95
2022-12-31T21:10:10.241Z,11.91
2022-12-31T21:12:43.692Z,11.89
2022-12-31T21:15:12.623Z,11.92
2022-12-31T21:17:40.654Z,11.97
2022-12-31T21:20:10.215Z,11.99
2022-12-31T21:22:38.469Z,12.02
2022-12-31T21:25:08.716Z,12.05
2022-12-31T21:27:37.163Z,12.07
2022-12-31T21:30:21.206Z,12.11
2022-12-31T21:32:49.506Z,12.12
2022-12-31T21:35:53.599Z,12.12
2022-12-31T21:38:07.911Z,12.15
2022-12-31T21:40:37.269Z,12.17
2022-12-31T21:43:05.249Z,12.21
2022-12-31T21:45:33.159Z,12.30
2022-12-31T21:48:18.635Z,12.38
2022-12-31T21:50:48.552Z,12.44
2022-12-31T21:53:23.473Z,12.48
2022-12-31T21:56:12.371Z,12.56
2022-12-31T21:58:41.956Z,12.57
2022-12-31T22:01:34.160Z,12.59
2022-12-31T22:04:02.194Z,12.67
2022-12-31T22:06:30.377Z,12.70
2022-12-31T22:08:58.517Z,12.71
2022-12-31T22:11:29.118Z,12.70
2022-12-31T22:13:57.430Z,12.73
2022-12-31T22:16:25.486Z,12.72
2022-12-31T22:18:56.552Z,12.72
2022-12-31T22:21:26.600Z,12.67
2022-12-31T22:23:55.826Z,12.65
2022-12-31T22:26:26.408Z,12.66
2022-12-31T22:28:59.709Z,12.67
2022-12-31T22:31:30.474Z,12.69
2022-12-31T22:33:59.845Z,12.68
2022-12-31T22:36:27.960Z,12.68
2022-12-31T22:38:58.473Z,12.70
2022-12-31T22:41:28.593Z,12.68
2022-12-31T22:44:04.556Z,12.65
2022-12-31T22:46:33.929Z,12.65
2022-12-31T22:49:04.054Z,12.62
2022-12-31T22:51:54.731Z,12.57
2022-12-31T22:54:21.455Z,12.55
2022-12-31T22:56:49.617Z,12.47
2022-12-31T22:59:18.975Z,12.38
2022-12-31T23:01:47.100Z,12.28
2022-12-31T23:04:15.145Z,12.19
2022-12-31T23:06:47.360Z,12.12
2022-12-31T23:09:34.817Z,12.04
2022-12-31T23:12:03.638Z,12.01
2022-12-31T23:14:50.410Z,11.97
2022-12-31T23:17:38.356Z,11.96
2022-12-31T23:20:25.438Z,11.88
2022-12-31T23:23:11.667Z,11.84
2022-12-31T23:25:42.076Z,11.84
2022-12-31T23:28:12.462Z,11.84
2022-12-31T23:30:42.997Z,11.85
2022-12-31T23:33:15.733Z,11.81
2022-12-31T23:35:44.077Z,11.81
2022-12-31T23:38:12.020Z,11.81
2022-12-31T23:40:39.934Z,11.79
2022-12-31T23:43:09.868Z,11.74
2022-12-31T23:45:38.200Z,11.69
2022-12-31T23:48:07.729Z,11.62
2022-12-31T23:50:35.675Z,11.56
2022-12-31T23:53:03.560Z,11.48
2022-12-31T23:55:31.482Z,11.39
2022-12-31T23:57:59.393Z,11.38
